Time;durP1;ratioP1;P1;durP2;ratioP2;P2;SDS_P1;SDS_P2;PMS_P1;PMS_P2;Temp;Humidity;BMP_temperature;BMP_pressure;BME280_temperature;BME280_humidity;BME280_pressure;Samples;Min_cycle;Max_cycle;Signal;HPM_P1;HPM_P2
2023/09/05 00:12:40;;;;;;;4.40;4.00;;;19.50;99.90;;;;;;4600049;31;20463;-79
2023/09/05 00:15:12;;;;;;;4.43;4.03;;;19.50;99.90;;;;;;4621735;30;20585;-79
2023/09/05 00:17:43;;;;;;;4.10;3.80;;;19.50;99.90;;;;;;4771357;30;20617;-80
2023/09/05 00:20:15;;;;;;;5.00;4.53;;;19.50;99.90;;;;;;4855390;29;20467;-80
2023/09/05 00:23:03;;;;;;;4.97;4.57;;;19.50;99.90;;;;;;4923121;29;20455;-79
2023/09/05 00:25:39;;;;;;;4.40;4.00;;;19.40;99.90;;;;;;4938752;29;20439;-79
2023/09/05 00:28:15;;;;;;;4.10;3.77;;;19.40;99.90;;;;;;4938733;29;20462;-79
2023/09/05 00:30:58;;;;;;;4.40;4.00;;;19.30;99.90;;;;;;4939114;29;20463;-79
2023/09/05 00:33:29;;;;;;;4.30;3.90;;;19.30;99.90;;;;;;4936297;29;20877;-79
2023/09/05 00:36:15;;;;;;;4.13;3.83;;;19.30;99.90;;;;;;4936152;29;20434;-79
2023/09/05 00:39:05;;;;;;;4.33;4.00;;;19.30;99.90;;;;;;4935986;29;20475;-79
2023/09/05 00:41:48;;;;;;;3.50;3.07;;;19.20;99.90;;;;;;4935120;29;20523;-78
2023/09/05 00:44:37;;;;;;;3.80;3.50;;;19.20;99.90;;;;;;4935468;29;20451;-81
2023/09/05 00:47:28;;;;;;;3.53;3.33;;;19.20;99.90;;;;;;4938135;29;20479;-79
2023/09/05 00:50:10;;;;;;;3.80;3.50;;;19.20;99.90;;;;;;4945467;29;20947;-80
2023/09/05 00:52:57;;;;;;;3.80;3.50;;;19.20;99.90;;;;;;4940969;29;20465;-81
2023/09/05 00:55:34;;;;;;;3.73;3.47;;;19.10;99.90;;;;;;4941295;29;20507;-79
2023/09/05 00:58:10;;;;;;;4.07;3.77;;;19.10;99.90;;;;;;4941846;29;20470;-79
2023/09/05 01:00:42;;;;;;;3.90;3.60;;;19.10;99.90;;;;;;4941737;29;20521;-80
2023/09/05 01:03:16;;;;;;;3.87;3.57;;;19.10;99.90;;;;;;4939476;29;20486;-79
2023/09/05 01:05:52;;;;;;;4.17;3.87;;;19.00;99.90;;;;;;4939697;29;20534;-79
2023/09/05 04:29:54;;;;;;;4.47;4.17;;;16.50;99.90;;;;;;4756213;30;20467;-78
2023/09/05 04:39:23;;;;;;;6.43;4.80;;;16.50;99.90;;;;;;4776405;29;20450;-77
2023/09/05 04:45:02;;;;;;;5.93;5.00;;;16.40;99.90;;;;;;4921978;28;20968;-78
2023/09/05 04:47:44;;;;;;;6.20;4.43;;;16.50;99.90;;;;;;4978979;28;20468;-78
2023/09/05 04:50:25;;;;;;;5.50;4.60;;;16.50;99.90;;;;;;4981419;28;20453;-77
2023/09/05 04:53:18;;;;;;;4.70;4.20;;;16.50;99.90;;;;;;4985399;28;20453;-78
2023/09/05 04:56:05;;;;;;;9.23;4.77;;;16.50;99.90;;;;;;4989897;28;20472;-79
2023/09/05 04:58:59;;;;;;;5.10;4.70;;;16.50;99.90;;;;;;4990338;28;20469;-79
2023/09/05 05:01:41;;;;;;;4.90;4.10;;;16.50;99.90;;;;;;4991136;28;20441;-79
2023/09/05 05:07:21;;;;;;;9.93;8.90;;;16.50;99.90;;;;;;4989713;28;20538;-77
2023/09/05 05:10:09;;;;;;;7.20;5.70;;;16.50;99.90;;;;;;4995799;28;20457;-78
2023/09/05 05:13:01;;;;;;;6.40;5.33;;;16.50;99.90;;;;;;4993525;28;20465;-77
2023/09/05 05:19:01;;;;;;;6.30;5.27;;;16.50;99.90;;;;;;4985830;28;20442;-76
2023/09/05 05:22:06;;;;;;;5.90;5.30;;;16.50;99.90;;;;;;4993412;28;20449;-79
2023/09/05 05:24:37;;;;;;;6.47;5.83;;;16.50;99.90;;;;;;4984621;28;20545;-77
2023/09/05 05:27:08;;;;;;;6.97;6.27;;;16.60;99.90;;;;;;4984948;28;20460;-78
2023/09/05 05:29:40;;;;;;;5.80;5.03;;;16.60;99.90;;;;;;4984196;28;20448;-78
2023/09/05 05:32:12;;;;;;;9.60;4.70;;;16.60;99.90;;;;;;4985788;28;20480;-82
2023/09/05 05:34:40;;;;;;;6.97;5.73;;;16.60;99.90;;;;;;4984064;28;20461;-79
2023/09/05 05:37:08;;;;;;;6.10;5.40;;;16.90;99.90;;;;;;4984579;28;20488;-79
2023/09/05 05:39:37;;;;;;;7.57;6.03;;;16.70;99.90;;;;;;4987651;28;20450;-78
2023/09/05 05:42:13;;;;;;;6.27;5.67;;;16.80;99.90;;;;;;4992815;28;20472;-79
2023/09/05 05:44:55;;;;;;;5.23;4.73;;;16.90;99.90;;;;;;4991255;28;20488;-78
2023/09/05 05:47:48;;;;;;;5.33;4.80;;;16.90;99.90;;;;;;4991625;28;20461;-77
2023/09/05 05:50:31;;;;;;;6.20;4.37;;;17.00;99.90;;;;;;4984540;28;20499;-78
2023/09/05 05:53:16;;;;;;;6.90;4.97;;;17.20;99.90;;;;;;4980586;28;20553;-79
2023/09/05 05:55:54;;;;;;;4.90;4.50;;;17.30;99.90;;;;;;4980247;28;20504;-79
2023/09/05 06:01:52;;;;;;;4.87;4.30;;;17.60;99.90;;;;;;4980599;28;20433;-82
2023/09/05 06:04:53;;;;;;;6.10;4.70;;;17.60;99.90;;;;;;4977645;28;20453;-79
2023/09/05 06:07:45;;;;;;;8.20;4.87;;;17.80;99.90;;;;;;4987195;28;20492;-78
2023/09/05 06:19:52;;;;;;;7.87;5.47;;;18.30;99.90;;;;;;4961141;28;21176;-78
2023/09/05 06:22:24;;;;;;;7.20;5.10;;;18.40;99.90;;;;;;4984271;28;20464;-79
2023/09/05 06:24:55;;;;;;;7.63;5.90;;;18.60;99.90;;;;;;5008576;28;20502;-77
2023/09/05 06:27:26;;;;;;;6.90;4.93;;;18.60;99.90;;;;;;5007534;28;20483;-79
2023/09/05 06:30:01;;;;;;;5.20;4.60;;;18.70;99.90;;;;;;5008217;28;20452;-82
2023/09/05 06:32:35;;;;;;;5.80;5.20;;;18.70;99.90;;;;;;5011145;28;20456;-80
2023/09/05 06:35:10;;;;;;;10.70;5.70;;;18.80;99.90;;;;;;5012719;28;20487;-78
2023/09/05 06:37:48;;;;;;;5.37;4.60;;;18.90;99.90;;;;;;5012316;28;20469;-81
2023/09/05 06:40:18;;;;;;;5.20;4.70;;;19.00;99.90;;;;;;5006021;28;20443;-80
2023/09/05 06:42:52;;;;;;;6.23;4.70;;;19.10;99.90;;;;;;5002744;28;20460;-80
2023/09/05 06:45:24;;;;;;;6.50;5.07;;;19.20;99.90;;;;;;5001920;28;20452;-78
2023/09/05 06:48:01;;;;;;;5.43;4.90;;;19.30;99.90;;;;;;5001657;28;20472;-81
2023/09/05 06:50:32;;;;;;;6.73;5.20;;;19.40;99.90;;;;;;5001328;28;20456;-80
2023/09/05 06:53:04;;;;;;;5.27;4.80;;;19.50;99.90;;;;;;5001955;28;20448;-79
2023/09/05 06:55:39;;;;;;;8.07;4.80;;;19.60;99.90;;;;;;5000921;28;20506;-81
2023/09/05 06:58:19;;;;;;;4.43;4.03;;;19.70;99.90;;;;;;5004327;28;20476;-80
2023/09/05 07:01:21;;;;;;;4.80;4.40;;;19.80;99.90;;;;;;5004188;28;20437;-82
2023/09/05 07:03:53;;;;;;;4.30;3.83;;;19.80;99.90;;;;;;4997183;28;20527;-80
2023/09/05 07:06:29;;;;;;;4.90;4.50;;;19.90;99.90;;;;;;5016543;28;20474;-81
2023/09/05 07:09:01;;;;;;;5.70;5.20;;;19.90;99.90;;;;;;5021531;28;20475;-80
2023/09/05 07:11:33;;;;;;;4.77;4.30;;;20.00;99.90;;;;;;5021717;28;20456;-81
2023/09/05 07:14:09;;;;;;;4.40;4.00;;;20.10;99.90;;;;;;5022499;28;20436;-81
2023/09/05 07:16:44;;;;;;;3.87;3.57;;;20.20;99.90;;;;;;5023531;28;20506;-80
2023/09/05 07:19:17;;;;;;;4.40;4.03;;;20.30;99.90;;;;;;5023288;28;20450;-84
2023/09/05 07:21:46;;;;;;;4.53;3.90;;;20.60;99.90;;;;;;5024821;28;20443;-79
2023/09/05 07:24:20;;;;;;;6.17;3.60;;;20.50;99.90;;;;;;5026684;28;20475;-80
2023/09/05 07:26:52;;;;;;;5.53;3.63;;;20.60;99.90;;;;;;5027599;28;20842;-80
2023/09/05 07:29:24;;;;;;;3.93;3.47;;;20.60;99.90;;;;;;5026417;28;20435;-79
2023/09/05 07:31:56;;;;;;;4.40;3.70;;;20.80;99.90;;;;;;5027210;28;20523;-82
2023/09/05 07:34:28;;;;;;;4.47;4.07;;;20.50;99.90;;;;;;5006989;28;20528;-80
2023/09/05 07:36:58;;;;;;;3.53;3.33;;;21.00;99.90;;;;;;5008685;28;20484;-80
2023/09/05 07:39:26;;;;;;;4.30;3.43;;;21.10;99.90;;;;;;5008600;28;20472;-80
2023/09/05 07:41:56;;;;;;;3.87;3.57;;;21.20;99.90;;;;;;5008336;28;20483;-80
2023/09/05 07:44:31;;;;;;;4.47;3.37;;;21.30;99.90;;;;;;5007725;28;20540;-80
2023/09/05 07:47:14;;;;;;;5.30;3.27;;;21.50;99.90;;;;;;5006900;28;20475;-81
2023/09/05 07:49:45;;;;;;;2.93;2.73;;;21.60;99.90;;;;;;5005512;28;20413;-80
2023/09/05 07:52:15;;;;;;;3.53;3.00;;;21.80;99.90;;;;;;5005654;28;20452;-82
2023/09/05 07:54:43;;;;;;;3.80;3.00;;;22.00;99.90;;;;;;5007023;28;20516;-80
2023/09/05 07:57:11;;;;;;;3.50;3.30;;;22.10;99.90;;;;;;5007530;28;20490;-80
2023/09/05 07:59:42;;;;;;;4.13;3.07;;;22.20;99.90;;;;;;5007101;28;20498;-80
2023/09/05 08:02:22;;;;;;;3.27;2.90;;;22.20;99.90;;;;;;5007678;28;20456;-82
2023/09/05 08:04:52;;;;;;;3.30;3.00;;;22.30;99.90;;;;;;5007492;28;20460;-79
2023/09/05 08:07:23;;;;;;;3.40;3.20;;;22.40;99.90;;;;;;5008912;28;20515;-80
2023/09/05 08:09:56;;;;;;;3.47;2.50;;;22.50;99.90;;;;;;5012852;28;20466;-81
2023/09/05 08:12:25;;;;;;;4.60;3.17;;;22.70;99.90;;;;;;5011605;28;20866;-81
2023/09/05 08:14:58;;;;;;;3.07;2.87;;;22.80;99.90;;;;;;5012432;28;20475;-81
2023/09/05 08:17:27;;;;;;;2.60;2.40;;;23.00;99.90;;;;;;5011651;28;20484;-81
2023/09/05 08:20:01;;;;;;;4.17;3.33;;;23.20;99.90;;;;;;5012107;28;20452;-79
2023/09/05 08:22:31;;;;;;;2.93;2.37;;;23.40;99.90;;;;;;5012769;28;20440;-81
2023/09/05 08:25:01;;;;;;;3.07;2.83;;;23.50;99.90;;;;;;5013147;28;20440;-79
2023/09/05 08:27:32;;;;;;;3.30;3.00;;;23.60;99.90;;;;;;5012798;28;20452;-82
2023/09/05 08:30:00;;;;;;;2.97;2.67;;;23.80;99.90;;;;;;5013175;28;20448;-78
2023/09/05 08:32:35;;;;;;;4.13;2.63;;;24.00;99.90;;;;;;5012366;28;20452;-79
2023/09/05 08:35:09;;;;;;;2.40;2.30;;;24.20;99.90;;;;;;5007289;28;20444;-79
2023/09/05 08:37:44;;;;;;;2.90;2.70;;;24.40;99.90;;;;;;5010517;28;20511;-79
2023/09/05 08:40:22;;;;;;;2.93;2.73;;;24.50;99.90;;;;;;5009684;28;20524;-80
2023/09/05 08:43:02;;;;;;;3.00;2.80;;;24.70;99.90;;;;;;5004919;28;20455;-78
2023/09/05 08:45:33;;;;;;;3.13;2.93;;;24.80;99.90;;;;;;5009878;28;20452;-79
2023/09/05 08:48:13;;;;;;;2.90;2.63;;;24.90;99.90;;;;;;5011408;28;20464;-79
2023/09/05 08:51:02;;;;;;;2.93;2.30;;;25.00;99.90;;;;;;5009358;28;20456;-81
2023/09/05 08:53:52;;;;;;;3.53;2.70;;;25.40;99.90;;;;;;5004498;28;20451;-81
2023/09/05 08:56:27;;;;;;;2.70;2.50;;;25.60;99.90;;;;;;4999400;28;20571;-79
2023/09/05 08:59:17;;;;;;;2.60;2.50;;;25.80;99.90;;;;;;4998722;28;20529;-81
2023/09/05 09:02:24;;;;;;;2.70;2.50;;;26.00;99.90;;;;;;4998165;28;20452;-81
2023/09/05 09:05:00;;;;;;;2.60;2.50;;;26.10;99.90;;;;;;4989450;28;20835;-79
2023/09/05 09:07:42;;;;;;;2.80;2.60;;;26.20;99.90;;;;;;4996813;28;20467;-81
2023/09/05 09:10:40;;;;;;;2.47;2.27;;;26.20;99.90;;;;;;4997033;28;20863;-80
2023/09/05 09:13:33;;;;;;;2.70;2.50;;;26.50;99.90;;;;;;4984356;28;20993;-81
2023/09/05 09:19:41;;;;;;;2.10;2.00;;;27.00;99.90;;;;;;4993613;28;20475;-79
2023/09/05 09:22:35;;;;;;;2.47;2.37;;;27.10;99.90;;;;;;5012242;28;20437;-79
2023/09/05 09:25:22;;;;;;;4.13;2.70;;;27.50;99.90;;;;;;5012989;28;20444;-80
2023/09/05 09:28:31;;;;;;;3.53;2.33;;;27.50;99.90;;;;;;5012564;28;20480;-82
2023/09/05 09:34:13;;;;;;;;;;;;;;;;;;;;;
2023/09/05 09:36:54;;;;;;;2.37;2.13;;;28.00;99.90;;;;;;5003933;28;20487;-81
2023/09/05 09:42:36;;;;;;;2.40;2.20;;;28.00;99.90;;;;;;5000625;28;20456;-81
2023/09/05 09:45:17;;;;;;;2.50;2.30;;;28.20;99.90;;;;;;5003966;28;20952;-83
2023/09/05 09:47:52;;;;;;;2.40;2.30;;;28.50;99.90;;;;;;5005485;28;20465;-80
2023/09/05 09:50:28;;;;;;;3.33;2.20;;;28.60;99.90;;;;;;5009547;28;20452;-81
2023/09/05 09:53:01;;;;;;;3.87;2.57;;;28.90;99.50;;;;;;5012171;28;20839;-80
2023/09/05 09:55:41;;;;;;;3.60;2.47;;;29.00;98.90;;;;;;5012833;28;20487;-80
2023/09/05 09:58:23;;;;;;;2.37;2.27;;;29.20;98.90;;;;;;5012797;28;20543;-81
2023/09/05 10:01:23;;;;;;;3.00;2.40;;;29.20;98.70;;;;;;5012667;28;20436;-79
2023/09/05 10:04:19;;;;;;;3.13;2.20;;;28.60;98.90;;;;;;5010810;28;20507;-80
2023/09/05 10:06:56;;;;;;;2.33;2.13;;;29.20;98.50;;;;;;5009590;28;20480;-80
2023/09/05 10:09:36;;;;;;;2.17;2.07;;;29.60;97.40;;;;;;5010827;28;20479;-79
2023/09/05 10:12:23;;;;;;;2.07;1.87;;;29.20;97.10;;;;;;5009835;28;20455;-80
2023/09/05 10:14:56;;;;;;;2.47;2.30;;;29.60;96.70;;;;;;5008988;28;20481;-80
2023/09/05 10:17:33;;;;;;;2.07;1.97;;;29.80;96.10;;;;;;5007496;28;20480;-80
2023/09/05 10:20:08;;;;;;;2.13;2.03;;;30.00;95.40;;;;;;5008037;28;20456;-79
2023/09/05 10:22:43;;;;;;;2.10;2.00;;;30.20;94.50;;;;;;5004377;28;20454;-81
2023/09/05 10:25:15;;;;;;;2.10;2.00;;;;;;;;;;4986482;28;20486;-81
2023/09/05 10:27:49;;;;;;;2.00;1.90;;;30.70;93.10;;;;;;4985085;28;20556;-78
2023/09/05 10:30:20;;;;;;;2.00;1.90;;;30.70;93.80;;;;;;4986528;28;20975;-81
2023/09/05 10:33:04;;;;;;;2.20;2.10;;;30.90;92.70;;;;;;4978563;28;20442;-82
2023/09/05 10:35:37;;;;;;;2.03;1.80;;;30.90;92.40;;;;;;4976417;28;20824;-80
2023/09/05 10:39:01;;;;;;;;;;;;;;;;;;;;;
2023/09/05 10:42:20;;;;;;;1.67;1.57;;;30.80;92.00;;;;;;4970116;28;20453;-79
2023/09/05 10:45:40;;;;;;;6.03;1.77;;;30.90;91.50;;;;;;4979892;28;20549;-79
2023/09/05 10:55:54;;;;;;;3.53;1.50;;;31.90;88.60;;;;;;4849035;29;20455;-80
2023/09/05 10:58:53;;;;;;;1.73;1.63;;;31.70;87.50;;;;;;4844181;29;20559;-80
2023/09/05 11:01:56;;;;;;;2.00;1.53;;;31.70;87.60;;;;;;4978788;28;20911;-82
2023/09/05 11:04:34;;;;;;;1.60;1.50;;;31.50;86.50;;;;;;4976923;28;20457;-80
2023/09/05 11:07:13;;;;;;;3.90;3.60;;;32.00;85.80;;;;;;4976692;28;20497;-81
2023/09/05 11:09:44;;;;;;;6.13;1.90;;;32.00;85.50;;;;;;4977659;28;20453;-80
2023/09/05 11:12:17;;;;;;;2.97;2.00;;;32.30;84.80;;;;;;4977029;28;20469;-82
2023/09/05 11:14:54;;;;;;;2.40;2.30;;;32.50;82.60;;;;;;4976833;28;20437;-81
2023/09/05 11:17:36;;;;;;;1.70;1.60;;;32.70;82.60;;;;;;4977731;28;20492;-82
2023/09/05 11:20:10;;;;;;;1.47;1.40;;;33.00;82.00;;;;;;4977881;28;20464;-80
2023/09/05 11:22:56;;;;;;;1.90;1.80;;;32.90;81.30;;;;;;4976959;28;20461;-81
2023/09/05 11:25:30;;;;;;;1.97;1.87;;;32.90;80.10;;;;;;4976256;28;20489;-82
2023/09/05 11:28:11;;;;;;;1.97;1.87;;;32.30;80.80;;;;;;4977003;28;20971;-81
2023/09/05 11:30:46;;;;;;;1.80;1.70;;;32.80;81.00;;;;;;4976649;28;20461;-80
2023/09/05 11:33:25;;;;;;;2.47;2.27;;;32.70;80.50;;;;;;4978563;28;20527;-80
2023/09/05 11:36:11;;;;;;;4.20;1.73;;;32.00;82.20;;;;;;4978793;28;20529;-82
2023/09/05 11:39:12;;;;;;;1.70;1.60;;;32.00;82.80;;;;;;4984043;28;20473;-80
2023/09/05 11:41:49;;;;;;;2.00;1.90;;;32.40;81.10;;;;;;4985099;28;20460;-80
2023/09/05 11:44:20;;;;;;;1.90;1.70;;;32.80;80.60;;;;;;4983843;28;20457;-80
2023/09/05 11:47:01;;;;;;;1.80;1.70;;;33.20;79.40;;;;;;4982640;28;20520;-81
2023/09/05 11:49:47;;;;;;;2.83;1.50;;;33.00;77.40;;;;;;4982361;28;20504;-83
2023/09/05 11:52:31;;;;;;;2.30;2.00;;;32.80;77.80;;;;;;4983587;28;20457;-82
2023/09/05 11:55:23;;;;;;;;;;;;;;;;;;;;;
2023/09/05 11:57:59;;;;;;;2.07;1.70;;;;;;;;;;4987389;28;20540;-83
2023/09/05 12:00:50;;;;;;;3.30;1.87;;;33.30;74.60;;;;;;4986696;28;20448;-81
2023/09/05 12:03:42;;;;;;;2.20;1.30;;;33.90;73.90;;;;;;4983200;28;20458;-80
2023/09/05 12:06:25;;;;;;;1.83;1.70;;;34.00;72.50;;;;;;4984402;28;20460;-81
2023/09/05 12:09:01;;;;;;;2.53;1.90;;;34.00;73.00;;;;;;4968683;28;20520;-82
2023/09/05 12:11:51;;;;;;;1.50;1.50;;;34.20;72.90;;;;;;4984243;28;20452;-82
2023/09/05 12:17:51;;;;;;;1.53;1.43;;;34.20;71.30;;;;;;4988526;28;20569;-80
2023/09/05 12:23:31;;;;;;;1.97;1.87;;;34.90;68.50;;;;;;4985142;28;20491;-83
2023/09/05 12:26:06;;;;;;;1.40;1.40;;;34.70;69.70;;;;;;4989977;28;20445;-80
2023/09/05 12:28:51;;;;;;;2.17;1.70;;;34.60;71.80;;;;;;4989548;28;20471;-82
2023/09/05 12:31:28;;;;;;;2.13;1.70;;;34.80;71.70;;;;;;4988862;28;20460;-81
2023/09/05 12:34:08;;;;;;;1.70;1.60;;;33.80;71.80;;;;;;4989609;28;20499;-81
2023/09/05 12:36:46;;;;;;;3.10;1.70;;;33.40;73.80;;;;;;4988633;28;20456;-82
2023/09/05 12:39:21;;;;;;;1.97;1.87;;;33.80;73.80;;;;;;4983580;28;20457;-80
2023/09/05 12:42:23;;;;;;;1.80;1.70;;;33.70;73.10;;;;;;4984931;28;20459;-81
2023/09/05 12:45:03;;;;;;;1.67;1.57;;;34.20;72.50;;;;;;4989290;28;20460;-80
2023/09/05 12:47:51;;;;;;;1.90;1.80;;;34.70;71.50;;;;;;4988659;28;20484;-82
2023/09/05 12:50:42;;;;;;;1.60;1.50;;;34.40;71.70;;;;;;4989607;28;20603;-81
2023/09/05 12:53:21;;;;;;;1.80;1.70;;;34.80;69.50;;;;;;4989236;28;20532;-78
2023/09/05 12:55:58;;;;;;;5.23;1.70;;;34.80;70.10;;;;;;4989472;28;20452;-82
2023/09/05 12:58:36;;;;;;;4.77;1.60;;;35.20;69.20;;;;;;4990419;28;20511;-79
2023/09/05 13:01:24;;;;;;;1.80;1.70;;;34.80;69.10;;;;;;4988301;28;20464;-82
2023/09/05 13:04:01;;;;;;;1.70;1.60;;;35.00;69.20;;;;;;4990881;28;20457;-79
2023/09/05 13:06:30;;;;;;;1.50;1.40;;;34.90;69.20;;;;;;4992726;28;20455;-79
2023/09/05 13:09:17;;;;;;;1.50;1.40;;;34.80;68.40;;;;;;4992045;28;20462;-80
2023/09/05 13:11:49;;;;;;;1.57;1.47;;;34.50;68.40;;;;;;4992754;28;20496;-79
2023/09/05 13:14:17;;;;;;;6.33;1.70;;;34.00;69.20;;;;;;4992060;28;20477;-82
2023/09/05 13:16:49;;;;;;;3.80;1.50;;;;;;;;;;4989777;28;20484;-81
2023/09/05 13:19:27;;;;;;;4.10;1.63;;;34.40;68.10;;;;;;4991836;28;20506;-82
2023/09/05 13:22:03;;;;;;;1.70;1.60;;;34.90;68.70;;;;;;4992363;28;20460;-80
2023/09/05 13:24:35;;;;;;;1.70;1.60;;;34.70;68.70;;;;;;5007563;28;20455;-81
2023/09/05 13:30:13;;;;;;;1.70;1.60;;;34.40;70.40;;;;;;5007790;28;20445;-82
2023/09/05 13:32:51;;;;;;;2.40;1.80;;;34.30;70.00;;;;;;5008222;28;20455;-80
2023/09/05 13:35:35;;;;;;;1.57;1.47;;;34.40;69.70;;;;;;5008872;28;20460;-81
2023/09/05 13:38:12;;;;;;;1.83;1.70;;;34.30;69.10;;;;;;5008865;28;20476;-81
2023/09/05 13:41:01;;;;;;;1.80;1.40;;;34.10;68.70;;;;;;5009753;28;20547;-82
2023/09/05 13:43:56;;;;;;;2.13;1.50;;;34.00;69.40;;;;;;5010000;28;20452;-79
2023/09/05 13:46:27;;;;;;;1.40;1.40;;;34.10;69.40;;;;;;5003952;28;20519;-82
2023/09/05 13:49:07;;;;;;;1.63;1.40;;;34.20;69.20;;;;;;5009268;28;20468;-82
2023/09/05 13:51:37;;;;;;;1.57;1.47;;;34.00;69.40;;;;;;5006715;28;21089;-82
2023/09/05 13:54:13;;;;;;;1.77;1.67;;;34.00;70.20;;;;;;5001251;28;20455;-81
2023/09/05 13:56:57;;;;;;;1.77;1.63;;;34.40;68.50;;;;;;5000665;28;20446;-81
2023/09/05 13:59:34;;;;;;;1.80;1.70;;;34.20;69.20;;;;;;5001295;28;20474;-81
2023/09/05 14:02:22;;;;;;;1.63;1.53;;;34.20;68.90;;;;;;5002279;28;20480;-79
2023/09/05 14:04:53;;;;;;;1.63;1.53;;;34.00;69.70;;;;;;5001241;28;20462;-82
2023/09/05 14:07:30;;;;;;;4.07;2.00;;;34.10;68.80;;;;;;5003972;28;20843;-80
2023/09/05 14:10:05;;;;;;;3.73;1.60;;;34.00;68.90;;;;;;5000204;28;20516;-81
2023/09/05 14:12:59;;;;;;;6.73;2.03;;;34.00;69.70;;;;;;5002041;28;20467;-83
2023/09/05 14:19:22;;;;;;;2.27;1.80;;;34.50;68.60;;;;;;4920956;29;20488;-81
2023/09/05 14:22:08;;;;;;;1.77;1.67;;;34.40;68.30;;;;;;4918685;29;20456;-79
2023/09/05 14:24:48;;;;;;;1.97;1.47;;;34.00;68.60;;;;;;4997403;28;20503;-81
2023/09/05 14:30:10;;;;;;;1.67;1.57;;;34.10;68.20;;;;;;4993927;28;20559;-79
2023/09/05 14:32:50;;;;;;;1.47;1.37;;;33.90;69.10;;;;;;4996820;28;20490;-80
2023/09/05 14:35:33;;;;;;;2.77;1.63;;;33.80;68.90;;;;;;4997412;28;20456;-80
2023/09/05 14:38:27;;;;;;;1.80;1.77;;;34.20;69.00;;;;;;4996804;28;20484;-80
2023/09/05 14:41:08;;;;;;;2.30;2.20;;;34.10;68.60;;;;;;4994683;28;20457;-82
2023/09/05 14:43:54;;;;;;;1.70;1.60;;;34.10;68.70;;;;;;4995776;28;20452;-80
2023/09/05 14:46:27;;;;;;;1.90;1.70;;;33.90;69.60;;;;;;4996246;28;20456;-80
2023/09/05 14:49:05;;;;;;;2.97;1.57;;;33.70;69.40;;;;;;4996402;28;20452;-83
2023/09/05 14:51:42;;;;;;;1.70;1.60;;;33.80;70.10;;;;;;4994937;28;20999;-82
2023/09/05 14:54:23;;;;;;;3.50;3.17;;;33.90;68.50;;;;;;4995189;28;20574;-82
2023/09/05 14:56:54;;;;;;;2.63;2.43;;;33.90;69.10;;;;;;4997418;28;20542;-80
2023/09/05 14:59:30;;;;;;;1.80;1.63;;;33.90;69.20;;;;;;5000793;28;20515;-79
2023/09/05 15:02:12;;;;;;;1.60;1.50;;;34.00;69.20;;;;;;4997912;28;20456;-81
2023/09/05 15:04:44;;;;;;;2.13;1.47;;;33.60;68.60;;;;;;4997975;28;20456;-83
2023/09/05 15:07:25;;;;;;;1.60;1.50;;;33.30;69.70;;;;;;5000347;28;20566;-78
2023/09/05 15:10:24;;;;;;;2.00;1.70;;;33.50;69.80;;;;;;5002762;28;20548;-83
2023/09/05 15:13:01;;;;;;;1.80;1.70;;;33.30;69.50;;;;;;4990794;28;20464;-84
2023/09/05 15:15:39;;;;;;;1.80;1.70;;;33.40;69.60;;;;;;4998606;28;20459;-79
2023/09/05 15:18:35;;;;;;;2.70;1.83;;;33.70;69.50;;;;;;4993912;28;20484;-85
2023/09/05 15:21:29;;;;;;;2.23;2.10;;;33.70;69.00;;;;;;4994551;28;20458;-80
2023/09/05 15:24:10;;;;;;;4.40;1.80;;;33.50;68.40;;;;;;4994103;28;20505;-81
2023/09/05 15:26:50;;;;;;;1.77;1.60;;;33.10;70.40;;;;;;4995563;28;20887;-81
2023/09/05 15:29:27;;;;;;;1.87;1.80;;;33.10;71.00;;;;;;4996205;28;20444;-83
2023/09/05 15:32:03;;;;;;;1.90;1.80;;;33.10;71.60;;;;;;5000638;28;20854;-81
2023/09/05 15:34:38;;;;;;;1.83;1.73;;;33.60;70.50;;;;;;4995361;28;20440;-81
2023/09/05 15:37:11;;;;;;;4.03;1.90;;;33.00;71.20;;;;;;4995586;28;20522;-82
2023/09/05 15:39:51;;;;;;;1.93;1.83;;;33.20;71.70;;;;;;4995566;28;20487;-81
2023/09/05 15:42:23;;;;;;;1.90;1.80;;;33.20;71.20;;;;;;4996889;28;20456;-81
2023/09/05 15:45:08;;;;;;;1.80;1.70;;;33.50;71.20;;;;;;4996936;28;20456;-82
2023/09/05 15:47:53;;;;;;;2.20;2.00;;;33.40;71.10;;;;;;4995695;28;20468;-79
2023/09/05 15:50:46;;;;;;;3.87;1.80;;;33.10;71.30;;;;;;4996908;28;20523;-82
2023/09/05 15:53:26;;;;;;;2.33;2.20;;;33.20;71.60;;;;;;4996199;28;20456;-81
2023/09/05 15:56:10;;;;;;;3.33;2.10;;;33.00;72.30;;;;;;4995530;28;20464;-82
2023/09/05 15:59:08;;;;;;;11.10;10.33;;;33.00;72.70;;;;;;4996079;28;20542;-84
2023/09/05 16:02:01;;;;;;;2.40;2.20;;;33.10;72.80;;;;;;4998521;28;20585;-83
2023/09/05 16:05:13;;;;;;;2.27;2.07;;;32.80;73.50;;;;;;4995811;28;20460;-80
2023/09/05 16:07:47;;;;;;;2.27;2.17;;;32.60;74.30;;;;;;4972650;28;20471;-81
2023/09/05 16:10:36;;;;;;;2.00;1.90;;;32.70;74.70;;;;;;4996689;28;20520;-80
2023/09/05 16:13:32;;;;;;;5.00;1.97;;;32.10;75.70;;;;;;5000667;28;20488;-82
2023/09/05 16:16:15;;;;;;;2.77;1.77;;;32.40;75.00;;;;;;5001007;28;20455;-83
2023/09/05 16:18:57;;;;;;;3.07;1.77;;;32.60;74.90;;;;;;5003114;28;20480;-80
2023/09/05 16:21:29;;;;;;;1.77;1.70;;;32.40;75.10;;;;;;5002238;28;20518;-80
2023/09/05 16:26:46;;;;;;;2.00;1.83;;;32.20;75.80;;;;;;4999114;28;20440;-82
2023/09/05 16:29:28;;;;;;;2.10;2.00;;;32.30;75.80;;;;;;5000849;28;20455;-82
2023/09/05 16:32:12;;;;;;;1.80;1.70;;;32.00;76.40;;;;;;5003738;28;20512;-83
2023/09/05 16:34:57;;;;;;;3.60;1.87;;;31.80;76.80;;;;;;5002341;28;20470;-84
2023/09/05 16:37:34;;;;;;;2.33;2.13;;;31.50;77.20;;;;;;5001778;28;20472;-81
2023/09/05 16:40:15;;;;;;;2.70;2.50;;;30.90;78.70;;;;;;5003307;28;20487;-78
2023/09/05 16:42:48;;;;;;;1.90;1.80;;;30.50;80.20;;;;;;5005166;28;20455;-79
2023/09/05 16:59:12;;;;;;;1.73;1.63;;;29.60;82.60;;;;;;4772810;30;20486;-82
2023/09/05 17:02:08;;;;;;;2.00;1.80;;;29.30;83.60;;;;;;4852095;29;20451;-79
2023/09/05 17:04:52;;;;;;;2.60;2.20;;;29.20;83.90;;;;;;4949790;28;20452;-79
2023/09/05 17:10:17;;;;;;;2.27;2.10;;;28.90;84.80;;;;;;5000675;28;20448;-83
2023/09/05 17:12:53;;;;;;;2.30;2.17;;;28.70;85.10;;;;;;5002245;28;20495;-81
2023/09/05 17:16:07;;;;;;;2.30;2.10;;;28.50;85.50;;;;;;5000517;28;20518;-80
2023/09/05 17:18:46;;;;;;;2.27;2.17;;;28.30;86.40;;;;;;5002569;28;20488;-80
2023/09/05 17:21:26;;;;;;;2.87;2.67;;;28.20;86.90;;;;;;5000409;28;20464;-82
2023/09/05 17:24:33;;;;;;;2.23;2.10;;;28.00;88.00;;;;;;5001642;28;20502;-79
2023/09/05 17:27:27;;;;;;;5.57;2.97;;;27.90;88.20;;;;;;5000427;28;20478;-78
2023/09/05 17:30:09;;;;;;;2.90;2.63;;;27.80;88.60;;;;;;4998857;28;20448;-79
2023/09/05 17:32:51;;;;;;;2.47;2.27;;;27.60;89.10;;;;;;5000721;28;20459;-83
2023/09/05 17:42:49;;;;;;;;;;;;;;;;;;;;;
2023/09/05 17:52:40;;;;;;;2.93;2.70;;;26.70;90.50;;;;;;4895771;29;20453;-81
2023/09/05 17:55:16;;;;;;;2.87;2.67;;;26.50;90.80;;;;;;4899393;29;20464;-81
2023/09/05 18:04:25;;;;;;;3.10;2.90;;;26.10;91.80;;;;;;4918650;29;20555;-83
2023/09/05 18:06:57;;;;;;;7.33;3.10;;;25.90;92.20;;;;;;4921651;29;20507;-81
2023/09/05 18:09:30;;;;;;;3.00;2.70;;;25.90;92.30;;;;;;4945565;29;20474;-80
2023/09/05 18:12:02;;;;;;;3.50;3.20;;;25.80;92.50;;;;;;4957652;29;20524;-82
2023/09/05 18:14:45;;;;;;;3.13;2.93;;;25.80;92.70;;;;;;4970874;28;20448;-81
2023/09/05 18:17:20;;;;;;;3.20;2.90;;;25.70;92.80;;;;;;5003643;28;20507;-81
2023/09/05 18:20:05;;;;;;;6.20;3.40;;;25.60;93.20;;;;;;5003499;28;20474;-81
2023/09/05 18:22:46;;;;;;;5.93;4.10;;;25.50;93.60;;;;;;5004551;28;20484;-83
2023/09/05 18:25:22;;;;;;;3.57;3.27;;;25.40;93.80;;;;;;5004777;28;20462;-80
2023/09/05 18:28:02;;;;;;;3.60;3.30;;;25.20;94.50;;;;;;5003937;28;20472;-81
2023/09/05 18:30:51;;;;;;;4.30;3.90;;;25.10;94.60;;;;;;5003400;28;20460;-81
2023/09/05 18:33:21;;;;;;;4.80;4.37;;;25.10;94.70;;;;;;5004986;28;20453;-81
2023/09/05 18:35:56;;;;;;;5.40;4.37;;;25.10;94.80;;;;;;5004467;28;20458;-80
2023/09/05 18:38:33;;;;;;;5.20;4.27;;;25.10;94.80;;;;;;5003626;28;20483;-81
2023/09/05 18:41:26;;;;;;;3.70;3.40;;;25.00;94.60;;;;;;5003629;28;20447;-81
2023/09/05 18:44:08;;;;;;;11.10;7.03;;;24.90;94.80;;;;;;5008565;28;20472;-81
2023/09/05 18:47:02;;;;;;;5.40;4.23;;;24.80;95.10;;;;;;5008589;28;20458;-82
2023/09/05 18:49:45;;;;;;;17.83;13.53;;;24.80;95.20;;;;;;5007953;28;20490;-82
2023/09/05 18:52:30;;;;;;;8.70;6.23;;;24.80;95.60;;;;;;5009467;28;20650;-80
2023/09/05 18:55:04;;;;;;;4.60;3.80;;;24.70;95.90;;;;;;5009523;28;20460;-79
2023/09/05 18:58:11;;;;;;;4.70;4.20;;;24.60;95.40;;;;;;5009252;28;20464;-80
2023/09/05 19:01:03;;;;;;;4.27;3.73;;;24.50;95.70;;;;;;5010374;28;20510;-82
2023/09/05 19:03:35;;;;;;;5.80;4.37;;;24.50;95.90;;;;;;5009034;28;20663;-82
2023/09/05 19:06:15;;;;;;;4.00;3.60;;;24.40;96.00;;;;;;5009001;28;20467;-82
2023/09/05 19:08:45;;;;;;;3.87;3.57;;;24.30;95.80;;;;;;5009205;28;20499;-84
2023/09/05 19:11:28;;;;;;;6.27;4.80;;;24.30;95.90;;;;;;5007647;28;20468;-79
2023/09/05 19:14:30;;;;;;;4.13;3.73;;;24.20;96.10;;;;;;5009862;28;20484;-80
2023/09/05 19:17:22;;;;;;;4.07;3.67;;;24.10;95.90;;;;;;4957541;28;20839;-81